sensor_id;sensor_type;location;lat;lon;timestamp;temperature;humidity
13982;DHT22;7065;50.880;5.502;2023-06-24T00:01:21;18.10;99.90
13982;DHT22;7065;50.880;5.502;2023-06-24T00:03:48;18.10;99.90
13982;DHT22;7065;50.880;5.502;2023-06-24T00:06:14;18.10;99.90
13982;DHT22;7065;50.880;5.502;2023-06-24T00:08:44;18.10;99.90
13982;DHT22;7065;50.880;5.502;2023-06-24T00:11:10;18.10;99.90
13982;DHT22;7065;50.880;5.502;2023-06-24T00:13:36;18.20;99.90
13982;DHT22;7065;50.880;5.502;2023-06-24T00:16:02;18.20;99.90
13982;DHT22;7065;50.880;5.502;2023-06-24T00:18:28;18.30;99.90
13982;DHT22;7065;50.880;5.502;2023-06-24T00:20:57;18.40;99.90
13982;DHT22;7065;50.880;5.502;2023-06-24T00:23:23;18.40;99.90
13982;DHT22;7065;50.880;5.502;2023-06-24T00:25:51;18.40;99.90
13982;DHT22;7065;50.880;5.502;2023-06-24T00:28:17;18.30;99.90
13982;DHT22;7065;50.880;5.502;2023-06-24T00:30:43;18.30;99.90
13982;DHT22;7065;50.880;5.502;2023-06-24T00:33:09;18.30;99.90
13982;DHT22;7065;50.880;5.502;2023-06-24T00:35:37;18.20;99.90
13982;DHT22;7065;50.880;5.502;2023-06-24T00:38:03;18.20;99.90
13982;DHT22;7065;50.880;5.502;2023-06-24T00:40:29;18.10;99.90
13982;DHT22;7065;50.880;5.502;2023-06-24T00:42:55;18.10;99.90
13982;DHT22;7065;50.880;5.502;2023-06-24T00:45:22;18.00;99.90
13982;DHT22;7065;50.880;5.502;2023-06-24T00:47:48;18.00;99.90
13982;DHT22;7065;50.880;5.502;2023-06-24T00:50:15;18.00;99.90
13982;DHT22;7065;50.880;5.502;2023-06-24T00:52:41;17.90;99.90
13982;DHT22;7065;50.880;5.502;2023-06-24T00:55:11;17.90;99.90
13982;DHT22;7065;50.880;5.502;2023-06-24T00:57:47;17.90;99.90
13982;DHT22;7065;50.880;5.502;2023-06-24T01:00:21;17.80;99.90
13982;DHT22;7065;50.880;5.502;2023-06-24T01:02:48;17.80;99.90
13982;DHT22;7065;50.880;5.502;2023-06-24T01:05:14;17.80;99.90
13982;DHT22;7065;50.880;5.502;2023-06-24T01:07:41;17.70;99.90
13982;DHT22;7065;50.880;5.502;2023-06-24T01:10:08;17.70;99.90
13982;DHT22;7065;50.880;5.502;2023-06-24T01:12:37;17.70;99.90
13982;DHT22;7065;50.880;5.502;2023-06-24T01:15:09;17.60;99.90
13982;DHT22;7065;50.880;5.502;2023-06-24T01:20:38;17.40;99.90
13982;DHT22;7065;50.880;5.502;2023-06-24T01:29:35;17.30;99.90
13982;DHT22;7065;50.880;5.502;2023-06-24T01:32:22;17.20;99.90
13982;DHT22;7065;50.880;5.502;2023-06-24T01:35:00;17.20;99.90
13982;DHT22;7065;50.880;5.502;2023-06-24T01:37:42;17.20;99.90
13982;DHT22;7065;50.880;5.502;2023-06-24T01:42:44;17.10;99.90
13982;DHT22;7065;50.880;5.502;2023-06-24T01:45:19;17.10;99.90
13982;DHT22;7065;50.880;5.502;2023-06-24T01:47:48;17.00;99.90
13982;DHT22;7065;50.880;5.502;2023-06-24T01:50:22;17.00;99.90
13982;DHT22;7065;50.880;5.502;2023-06-24T01:52:49;17.00;99.90
13982;DHT22;7065;50.880;5.502;2023-06-24T01:55:19;17.00;99.90
13982;DHT22;7065;50.880;5.502;2023-06-24T01:57:46;17.00;99.90
13982;DHT22;7065;50.880;5.502;2023-06-24T02:00:14;17.00;99.90
13982;DHT22;7065;50.880;5.502;2023-06-24T02:02:41;16.90;99.90
13982;DHT22;7065;50.880;5.502;2023-06-24T02:05:09;16.90;99.90
13982;DHT22;7065;50.880;5.502;2023-06-24T02:07:36;16.90;99.90
13982;DHT22;7065;50.880;5.502;2023-06-24T02:10:02;16.80;99.90
13982;DHT22;7065;50.880;5.502;2023-06-24T02:12:30;16.80;99.90
13982;DHT22;7065;50.880;5.502;2023-06-24T02:14:56;16.70;99.90
13982;DHT22;7065;50.880;5.502;2023-06-24T02:17:24;16.70;99.90
13982;DHT22;7065;50.880;5.502;2023-06-24T02:19:52;16.70;99.90
13982;DHT22;7065;50.880;5.502;2023-06-24T02:22:20;16.70;99.90
13982;DHT22;7065;50.880;5.502;2023-06-24T02:24:48;16.70;99.90
13982;DHT22;7065;50.880;5.502;2023-06-24T02:27:14;16.70;99.90
13982;DHT22;7065;50.880;5.502;2023-06-24T02:29:42;16.60;99.90
13982;DHT22;7065;50.880;5.502;2023-06-24T02:32:09;16.60;99.90
13982;DHT22;7065;50.880;5.502;2023-06-24T02:34:35;16.50;99.90
13982;DHT22;7065;50.880;5.502;2023-06-24T02:37:01;16.50;99.90
13982;DHT22;7065;50.880;5.502;2023-06-24T02:39:27;16.50;99.90
13982;DHT22;7065;50.880;5.502;2023-06-24T02:41:53;16.40;99.90
13982;DHT22;7065;50.880;5.502;2023-06-24T02:44:19;16.40;99.90
13982;DHT22;7065;50.880;5.502;2023-06-24T02:46:45;16.40;99.90
13982;DHT22;7065;50.880;5.502;2023-06-24T02:49:15;16.30;99.90
13982;DHT22;7065;50.880;5.502;2023-06-24T02:51:41;16.30;99.90
13982;DHT22;7065;50.880;5.502;2023-06-24T02:54:08;16.30;99.90
13982;DHT22;7065;50.880;5.502;2023-06-24T02:56:35;16.20;99.90
13982;DHT22;7065;50.880;5.502;2023-06-24T02:59:07;16.20;99.90
13982;DHT22;7065;50.880;5.502;2023-06-24T03:01:34;16.20;99.90
13982;DHT22;7065;50.880;5.502;2023-06-24T03:04:04;16.10;99.90
13982;DHT22;7065;50.880;5.502;2023-06-24T03:06:30;16.10;99.90
13982;DHT22;7065;50.880;5.502;2023-06-24T03:08:57;16.00;99.90
13982;DHT22;7065;50.880;5.502;2023-06-24T03:11:25;15.90;99.90
13982;DHT22;7065;50.880;5.502;2023-06-24T03:13:51;15.80;99.90
13982;DHT22;7065;50.880;5.502;2023-06-24T03:16:17;15.80;99.90
13982;DHT22;7065;50.880;5.502;2023-06-24T03:18:43;15.80;99.90
13982;DHT22;7065;50.880;5.502;2023-06-24T03:21:09;15.80;99.90
13982;DHT22;7065;50.880;5.502;2023-06-24T03:23:36;15.80;99.90
13982;DHT22;7065;50.880;5.502;2023-06-24T03:26:02;15.80;99.90
13982;DHT22;7065;50.880;5.502;2023-06-24T03:28:30;15.80;99.90
13982;DHT22;7065;50.880;5.502;2023-06-24T03:30:56;15.80;99.90
13982;DHT22;7065;50.880;5.502;2023-06-24T03:33:22;15.80;99.90
13982;DHT22;7065;50.880;5.502;2023-06-24T03:35:50;15.80;99.90
13982;DHT22;7065;50.880;5.502;2023-06-24T03:38:16;15.80;99.90
13982;DHT22;7065;50.880;5.502;2023-06-24T03:40:41;15.70;99.90
13982;DHT22;7065;50.880;5.502;2023-06-24T03:43:07;15.70;99.90
13982;DHT22;7065;50.880;5.502;2023-06-24T03:45:33;15.70;99.90
13982;DHT22;7065;50.880;5.502;2023-06-24T03:47:58;15.60;99.90
13982;DHT22;7065;50.880;5.502;2023-06-24T03:50:24;15.60;99.90
13982;DHT22;7065;50.880;5.502;2023-06-24T03:52:50;15.50;99.90
13982;DHT22;7065;50.880;5.502;2023-06-24T03:55:16;15.50;99.90
13982;DHT22;7065;50.880;5.502;2023-06-24T03:57:41;15.50;99.90
13982;DHT22;7065;50.880;5.502;2023-06-24T04:00:07;15.60;99.90
13982;DHT22;7065;50.880;5.502;2023-06-24T04:02:41;15.60;99.90
13982;DHT22;7065;50.880;5.502;2023-06-24T04:05:08;15.60;99.90
13982;DHT22;7065;50.880;5.502;2023-06-24T04:07:34;15.60;99.90
13982;DHT22;7065;50.880;5.502;2023-06-24T04:10:02;15.60;99.90
13982;DHT22;7065;50.880;5.502;2023-06-24T04:12:28;15.60;99.90
13982;DHT22;7065;50.880;5.502;2023-06-24T04:14:53;15.60;99.90
13982;DHT22;7065;50.880;5.502;2023-06-24T04:17:19;15.60;99.90
13982;DHT22;7065;50.880;5.502;2023-06-24T04:19:44;15.60;99.90
13982;DHT22;7065;50.880;5.502;2023-06-24T04:22:10;15.60;99.90
13982;DHT22;7065;50.880;5.502;2023-06-24T04:24:36;15.60;99.90
13982;DHT22;7065;50.880;5.502;2023-06-24T04:27:02;15.70;99.90
13982;DHT22;7065;50.880;5.502;2023-06-24T04:29:28;15.70;99.90
13982;DHT22;7065;50.880;5.502;2023-06-24T04:31:54;15.80;99.90
13982;DHT22;7065;50.880;5.502;2023-06-24T04:34:20;15.80;99.90
13982;DHT22;7065;50.880;5.502;2023-06-24T04:36:45;15.90;99.90
13982;DHT22;7065;50.880;5.502;2023-06-24T04:39:11;15.90;99.90
13982;DHT22;7065;50.880;5.502;2023-06-24T04:41:37;16.00;99.90
13982;DHT22;7065;50.880;5.502;2023-06-24T04:44:03;16.10;99.90
13982;DHT22;7065;50.880;5.502;2023-06-24T04:46:29;16.10;99.90
13982;DHT22;7065;50.880;5.502;2023-06-24T04:48:55;16.10;99.90
13982;DHT22;7065;50.880;5.502;2023-06-24T04:51:20;16.20;99.90
13982;DHT22;7065;50.880;5.502;2023-06-24T04:53:46;16.20;99.90
13982;DHT22;7065;50.880;5.502;2023-06-24T04:56:11;16.30;99.90
13982;DHT22;7065;50.880;5.502;2023-06-24T04:58:37;16.30;99.90
13982;DHT22;7065;50.880;5.502;2023-06-24T05:01:03;16.30;99.90
13982;DHT22;7065;50.880;5.502;2023-06-24T05:03:28;16.30;99.90
13982;DHT22;7065;50.880;5.502;2023-06-24T05:05:54;16.40;99.90
13982;DHT22;7065;50.880;5.502;2023-06-24T05:08:20;16.40;99.90
13982;DHT22;7065;50.880;5.502;2023-06-24T05:10:46;16.40;99.90
13982;DHT22;7065;50.880;5.502;2023-06-24T05:13:12;16.50;99.90
13982;DHT22;7065;50.880;5.502;2023-06-24T05:15:37;16.50;99.90
13982;DHT22;7065;50.880;5.502;2023-06-24T05:18:03;16.50;99.90
13982;DHT22;7065;50.880;5.502;2023-06-24T05:20:29;16.60;99.90
13982;DHT22;7065;50.880;5.502;2023-06-24T05:22:55;16.70;99.90
13982;DHT22;7065;50.880;5.502;2023-06-24T05:25:21;16.70;99.90
13982;DHT22;7065;50.880;5.502;2023-06-24T05:27:47;16.80;99.90
13982;DHT22;7065;50.880;5.502;2023-06-24T05:30:13;16.90;99.90
13982;DHT22;7065;50.880;5.502;2023-06-24T05:32:39;16.90;99.90
13982;DHT22;7065;50.880;5.502;2023-06-24T05:35:05;17.00;99.90
13982;DHT22;7065;50.880;5.502;2023-06-24T05:37:31;17.10;99.90
13982;DHT22;7065;50.880;5.502;2023-06-24T05:39:57;17.10;99.90
13982;DHT22;7065;50.880;5.502;2023-06-24T05:42:26;17.20;99.90
13982;DHT22;7065;50.880;5.502;2023-06-24T05:44:52;17.20;99.90
13982;DHT22;7065;50.880;5.502;2023-06-24T05:47:18;17.20;99.90
13982;DHT22;7065;50.880;5.502;2023-06-24T05:49:44;17.20;99.90
13982;DHT22;7065;50.880;5.502;2023-06-24T05:52:11;17.20;99.90
13982;DHT22;7065;50.880;5.502;2023-06-24T05:54:37;17.30;99.90
13982;DHT22;7065;50.880;5.502;2023-06-24T05:57:03;17.30;99.90
13982;DHT22;7065;50.880;5.502;2023-06-24T05:59:32;17.40;99.90
13982;DHT22;7065;50.880;5.502;2023-06-24T06:01:57;17.40;99.90
13982;DHT22;7065;50.880;5.502;2023-06-24T06:04:23;17.40;99.90
13982;DHT22;7065;50.880;5.502;2023-06-24T06:06:50;17.40;99.90
13982;DHT22;7065;50.880;5.502;2023-06-24T06:09:16;17.50;99.90
13982;DHT22;7065;50.880;5.502;2023-06-24T06:11:42;17.50;99.90
13982;DHT22;7065;50.880;5.502;2023-06-24T06:14:07;17.60;99.90
13982;DHT22;7065;50.880;5.502;2023-06-24T06:16:33;17.60;99.90
13982;DHT22;7065;50.880;5.502;2023-06-24T06:18:59;17.60;99.90
13982;DHT22;7065;50.880;5.502;2023-06-24T06:21:24;17.70;99.90
13982;DHT22;7065;50.880;5.502;2023-06-24T06:23:50;17.70;99.90
13982;DHT22;7065;50.880;5.502;2023-06-24T06:26:16;17.80;99.90
13982;DHT22;7065;50.880;5.502;2023-06-24T06:28:42;17.80;99.90
13982;DHT22;7065;50.880;5.502;2023-06-24T06:31:08;17.80;99.90
13982;DHT22;7065;50.880;5.502;2023-06-24T06:33:34;17.80;99.90
13982;DHT22;7065;50.880;5.502;2023-06-24T06:36:00;17.90;99.90
13982;DHT22;7065;50.880;5.502;2023-06-24T06:38:26;18.00;99.90
13982;DHT22;7065;50.880;5.502;2023-06-24T06:40:52;18.00;99.90
13982;DHT22;7065;50.880;5.502;2023-06-24T06:43:17;18.10;99.90
13982;DHT22;7065;50.880;5.502;2023-06-24T06:45:43;18.10;99.90
13982;DHT22;7065;50.880;5.502;2023-06-24T06:48:09;18.10;99.90
13982;DHT22;7065;50.880;5.502;2023-06-24T06:50:35;18.20;99.90
13982;DHT22;7065;50.880;5.502;2023-06-24T06:53:00;18.20;99.90
13982;DHT22;7065;50.880;5.502;2023-06-24T06:55:27;18.30;99.90
13982;DHT22;7065;50.880;5.502;2023-06-24T06:57:53;18.30;99.90
13982;DHT22;7065;50.880;5.502;2023-06-24T07:00:19;18.30;99.90
13982;DHT22;7065;50.880;5.502;2023-06-24T07:02:44;18.30;99.90
13982;DHT22;7065;50.880;5.502;2023-06-24T07:05:10;18.30;99.90
13982;DHT22;7065;50.880;5.502;2023-06-24T07:07:39;18.30;99.90
13982;DHT22;7065;50.880;5.502;2023-06-24T07:10:05;18.40;99.90
13982;DHT22;7065;50.880;5.502;2023-06-24T07:12:32;18.50;99.90
13982;DHT22;7065;50.880;5.502;2023-06-24T07:14:57;18.50;99.90
13982;DHT22;7065;50.880;5.502;2023-06-24T07:17:23;18.50;99.90
13982;DHT22;7065;50.880;5.502;2023-06-24T07:19:49;18.50;99.90
13982;DHT22;7065;50.880;5.502;2023-06-24T07:22:15;18.60;99.90
13982;DHT22;7065;50.880;5.502;2023-06-24T07:24:41;18.60;99.90
13982;DHT22;7065;50.880;5.502;2023-06-24T07:27:07;18.70;99.90
13982;DHT22;7065;50.880;5.502;2023-06-24T07:29:33;18.70;99.90
13982;DHT22;7065;50.880;5.502;2023-06-24T07:31:59;18.80;99.90
13982;DHT22;7065;50.880;5.502;2023-06-24T07:34:24;18.80;99.90
13982;DHT22;7065;50.880;5.502;2023-06-24T07:36:51;18.90;99.90
13982;DHT22;7065;50.880;5.502;2023-06-24T07:39:17;18.90;99.90
13982;DHT22;7065;50.880;5.502;2023-06-24T07:41:43;18.90;99.90
13982;DHT22;7065;50.880;5.502;2023-06-24T07:44:09;18.90;99.90
13982;DHT22;7065;50.880;5.502;2023-06-24T07:46:35;18.90;99.90
13982;DHT22;7065;50.880;5.502;2023-06-24T07:49:00;18.90;99.90
13982;DHT22;7065;50.880;5.502;2023-06-24T07:51:27;19.00;99.90
13982;DHT22;7065;50.880;5.502;2023-06-24T07:53:53;19.00;99.90
13982;DHT22;7065;50.880;5.502;2023-06-24T07:56:18;19.10;99.90
13982;DHT22;7065;50.880;5.502;2023-06-24T07:58:44;19.20;99.90
13982;DHT22;7065;50.880;5.502;2023-06-24T08:01:10;19.20;99.90
13982;DHT22;7065;50.880;5.502;2023-06-24T08:03:36;19.20;99.90
13982;DHT22;7065;50.880;5.502;2023-06-24T08:06:03;19.30;99.90
13982;DHT22;7065;50.880;5.502;2023-06-24T08:08:28;19.30;99.90
13982;DHT22;7065;50.880;5.502;2023-06-24T08:10:54;19.50;99.90
13982;DHT22;7065;50.880;5.502;2023-06-24T08:13:20;19.60;99.90
13982;DHT22;7065;50.880;5.502;2023-06-24T08:15:46;19.60;99.90
13982;DHT22;7065;50.880;5.502;2023-06-24T08:18:12;19.70;99.90
13982;DHT22;7065;50.880;5.502;2023-06-24T08:20:37;19.70;99.90
13982;DHT22;7065;50.880;5.502;2023-06-24T08:23:03;19.80;99.90
13982;DHT22;7065;50.880;5.502;2023-06-24T08:25:29;19.80;99.90
13982;DHT22;7065;50.880;5.502;2023-06-24T08:27:55;19.80;99.90
13982;DHT22;7065;50.880;5.502;2023-06-24T08:30:21;19.80;99.90
13982;DHT22;7065;50.880;5.502;2023-06-24T08:32:47;19.90;99.90
13982;DHT22;7065;50.880;5.502;2023-06-24T08:35:12;19.90;99.90
13982;DHT22;7065;50.880;5.502;2023-06-24T08:37:39;19.90;99.90
13982;DHT22;7065;50.880;5.502;2023-06-24T08:40:05;20.00;99.90
13982;DHT22;7065;50.880;5.502;2023-06-24T08:42:31;20.10;99.90
13982;DHT22;7065;50.880;5.502;2023-06-24T08:44:57;20.20;99.90
13982;DHT22;7065;50.880;5.502;2023-06-24T08:47:24;20.30;99.90
13982;DHT22;7065;50.880;5.502;2023-06-24T08:49:58;20.30;99.90
13982;DHT22;7065;50.880;5.502;2023-06-24T08:52:30;20.30;99.90
13982;DHT22;7065;50.880;5.502;2023-06-24T08:54:59;20.30;99.90
13982;DHT22;7065;50.880;5.502;2023-06-24T08:57:25;20.30;99.90
13982;DHT22;7065;50.880;5.502;2023-06-24T08:59:52;20.30;99.90
13982;DHT22;7065;50.880;5.502;2023-06-24T09:02:18;20.30;99.90
13982;DHT22;7065;50.880;5.502;2023-06-24T09:04:44;20.40;99.90
13982;DHT22;7065;50.880;5.502;2023-06-24T09:07:10;20.50;99.90
13982;DHT22;7065;50.880;5.502;2023-06-24T09:09:44;20.40;99.90
13982;DHT22;7065;50.880;5.502;2023-06-24T09:12:14;20.70;99.90
13982;DHT22;7065;50.880;5.502;2023-06-24T09:14:40;20.70;99.90
13982;DHT22;7065;50.880;5.502;2023-06-24T09:17:06;20.70;99.90
13982;DHT22;7065;50.880;5.502;2023-06-24T09:19:35;20.60;99.90
13982;DHT22;7065;50.880;5.502;2023-06-24T09:22:06;20.70;99.90
13982;DHT22;7065;50.880;5.502;2023-06-24T09:24:33;20.80;99.90
13982;DHT22;7065;50.880;5.502;2023-06-24T09:27:00;20.80;99.90
13982;DHT22;7065;50.880;5.502;2023-06-24T09:29:32;20.90;99.90
13982;DHT22;7065;50.880;5.502;2023-06-24T09:31:58;20.90;99.90
13982;DHT22;7065;50.880;5.502;2023-06-24T09:34:26;20.80;99.90
13982;DHT22;7065;50.880;5.502;2023-06-24T09:36:56;20.80;99.90
13982;DHT22;7065;50.880;5.502;2023-06-24T09:39:23;20.90;99.90
13982;DHT22;7065;50.880;5.502;2023-06-24T09:41:55;20.90;99.90
13982;DHT22;7065;50.880;5.502;2023-06-24T09:44:21;21.00;99.90
13982;DHT22;7065;50.880;5.502;2023-06-24T09:46:47;21.00;99.90
13982;DHT22;7065;50.880;5.502;2023-06-24T09:49:14;21.00;99.90
13982;DHT22;7065;50.880;5.502;2023-06-24T09:51:43;21.00;99.90
13982;DHT22;7065;50.880;5.502;2023-06-24T09:54:11;21.20;99.90
13982;DHT22;7065;50.880;5.502;2023-06-24T09:56:39;21.30;99.90
13982;DHT22;7065;50.880;5.502;2023-06-24T09:59:06;21.20;99.90
13982;DHT22;7065;50.880;5.502;2023-06-24T10:01:36;21.20;99.90
13982;DHT22;7065;50.880;5.502;2023-06-24T10:04:05;21.30;99.90
13982;DHT22;7065;50.880;5.502;2023-06-24T10:06:32;21.20;99.90
13982;DHT22;7065;50.880;5.502;2023-06-24T10:08:58;21.30;99.90
13982;DHT22;7065;50.880;5.502;2023-06-24T10:11:24;21.40;99.90
13982;DHT22;7065;50.880;5.502;2023-06-24T10:13:51;21.40;99.90
13982;DHT22;7065;50.880;5.502;2023-06-24T10:16:17;21.30;99.90
13982;DHT22;7065;50.880;5.502;2023-06-24T10:18:44;21.40;99.90
13982;DHT22;7065;50.880;5.502;2023-06-24T10:21:10;21.60;99.90
13982;DHT22;7065;50.880;5.502;2023-06-24T10:26:10;21.50;99.90
13982;DHT22;7065;50.880;5.502;2023-06-24T10:37:20;21.70;99.90
13982;DHT22;7065;50.880;5.502;2023-06-24T10:39:55;21.90;99.90
13982;DHT22;7065;50.880;5.502;2023-06-24T10:44:59;22.00;99.90
13982;DHT22;7065;50.880;5.502;2023-06-24T10:47:27;22.10;99.90
13982;DHT22;7065;50.880;5.502;2023-06-24T10:49:53;22.20;99.90
13982;DHT22;7065;50.880;5.502;2023-06-24T10:52:20;22.30;99.90
13982;DHT22;7065;50.880;5.502;2023-06-24T10:54:50;22.40;99.90
13982;DHT22;7065;50.880;5.502;2023-06-24T10:57:27;22.30;99.90
13982;DHT22;7065;50.880;5.502;2023-06-24T10:59:55;22.40;99.90
13982;DHT22;7065;50.880;5.502;2023-06-24T11:02:26;22.30;99.90
13982;DHT22;7065;50.880;5.502;2023-06-24T11:04:58;22.30;99.90
13982;DHT22;7065;50.880;5.502;2023-06-24T11:07:29;22.40;99.90
13982;DHT22;7065;50.880;5.502;2023-06-24T11:10:00;22.50;99.90
13982;DHT22;7065;50.880;5.502;2023-06-24T11:12:29;22.50;99.90
13982;DHT22;7065;50.880;5.502;2023-06-24T11:14:56;22.40;99.90
13982;DHT22;7065;50.880;5.502;2023-06-24T11:17:23;22.50;99.90
13982;DHT22;7065;50.880;5.502;2023-06-24T11:19:49;22.70;99.90
13982;DHT22;7065;50.880;5.502;2023-06-24T11:22:15;22.70;99.90
13982;DHT22;7065;50.880;5.502;2023-06-24T11:24:42;22.70;99.90
13982;DHT22;7065;50.880;5.502;2023-06-24T11:27:07;22.70;99.90
13982;DHT22;7065;50.880;5.502;2023-06-24T11:29:33;22.70;99.90
13982;DHT22;7065;50.880;5.502;2023-06-24T11:32:01;22.80;99.90
13982;DHT22;7065;50.880;5.502;2023-06-24T11:34:28;22.70;99.90
13982;DHT22;7065;50.880;5.502;2023-06-24T11:36:54;22.70;99.90
13982;DHT22;7065;50.880;5.502;2023-06-24T11:39:27;22.80;99.90
13982;DHT22;7065;50.880;5.502;2023-06-24T11:41:54;23.00;99.90
13982;DHT22;7065;50.880;5.502;2023-06-24T11:44:26;23.00;99.90
13982;DHT22;7065;50.880;5.502;2023-06-24T11:46:53;23.10;99.90
13982;DHT22;7065;50.880;5.502;2023-06-24T11:49:28;23.10;99.90
13982;DHT22;7065;50.880;5.502;2023-06-24T11:51:54;23.10;99.90
13982;DHT22;7065;50.880;5.502;2023-06-24T11:54:20;23.10;99.90
13982;DHT22;7065;50.880;5.502;2023-06-24T11:56:53;23.10;99.90
13982;DHT22;7065;50.880;5.502;2023-06-24T11:59:20;23.20;99.90
13982;DHT22;7065;50.880;5.502;2023-06-24T12:01:55;23.40;99.90
13982;DHT22;7065;50.880;5.502;2023-06-24T12:04:27;23.30;99.90
13982;DHT22;7065;50.880;5.502;2023-06-24T12:06:53;23.40;99.90
13982;DHT22;7065;50.880;5.502;2023-06-24T12:09:19;23.40;99.90
13982;DHT22;7065;50.880;5.502;2023-06-24T12:11:45;23.50;99.90
13982;DHT22;7065;50.880;5.502;2023-06-24T12:14:11;23.50;99.90
13982;DHT22;7065;50.880;5.502;2023-06-24T12:16:38;23.50;99.90
13982;DHT22;7065;50.880;5.502;2023-06-24T12:19:04;23.50;99.90
13982;DHT22;7065;50.880;5.502;2023-06-24T12:21:30;23.60;99.90
13982;DHT22;7065;50.880;5.502;2023-06-24T12:23:56;23.60;99.90
13982;DHT22;7065;50.880;5.502;2023-06-24T12:26:21;23.80;99.90
13982;DHT22;7065;50.880;5.502;2023-06-24T12:28:47;24.00;99.90
13982;DHT22;7065;50.880;5.502;2023-06-24T12:31:13;24.10;99.90
13982;DHT22;7065;50.880;5.502;2023-06-24T12:33:39;24.10;99.90
13982;DHT22;7065;50.880;5.502;2023-06-24T12:36:05;24.10;99.90
13982;DHT22;7065;50.880;5.502;2023-06-24T12:38:31;24.00;99.90
13982;DHT22;7065;50.880;5.502;2023-06-24T12:40:59;24.00;99.90
13982;DHT22;7065;50.880;5.502;2023-06-24T12:43:25;23.90;99.90
13982;DHT22;7065;50.880;5.502;2023-06-24T12:45:51;24.00;99.90
13982;DHT22;7065;50.880;5.502;2023-06-24T12:48:17;24.00;99.90
13982;DHT22;7065;50.880;5.502;2023-06-24T12:50:42;24.20;99.90
13982;DHT22;7065;50.880;5.502;2023-06-24T12:53:09;24.20;99.90
13982;DHT22;7065;50.880;5.502;2023-06-24T12:55:39;24.30;99.90
13982;DHT22;7065;50.880;5.502;2023-06-24T12:58:05;24.30;99.90
13982;DHT22;7065;50.880;5.502;2023-06-24T13:00:30;24.20;99.90
13982;DHT22;7065;50.880;5.502;2023-06-24T13:02:56;24.40;99.90
13982;DHT22;7065;50.880;5.502;2023-06-24T13:05:22;24.40;99.90
13982;DHT22;7065;50.880;5.502;2023-06-24T13:07:47;24.50;99.90
13982;DHT22;7065;50.880;5.502;2023-06-24T13:10:13;24.50;99.90
13982;DHT22;7065;50.880;5.502;2023-06-24T13:12:39;24.50;99.90
13982;DHT22;7065;50.880;5.502;2023-06-24T13:15:06;24.60;99.90
13982;DHT22;7065;50.880;5.502;2023-06-24T13:17:32;24.80;99.90
13982;DHT22;7065;50.880;5.502;2023-06-24T13:19:58;24.80;99.90
13982;DHT22;7065;50.880;5.502;2023-06-24T13:22:24;24.90;99.90
13982;DHT22;7065;50.880;5.502;2023-06-24T13:24:50;25.00;99.90
13982;DHT22;7065;50.880;5.502;2023-06-24T13:27:16;25.10;99.90
13982;DHT22;7065;50.880;5.502;2023-06-24T13:29:42;25.00;99.90
13982;DHT22;7065;50.880;5.502;2023-06-24T13:32:08;24.90;99.90
13982;DHT22;7065;50.880;5.502;2023-06-24T13:34:34;24.90;99.90
13982;DHT22;7065;50.880;5.502;2023-06-24T13:37:00;24.90;99.90
13982;DHT22;7065;50.880;5.502;2023-06-24T13:39:26;25.00;99.90
13982;DHT22;7065;50.880;5.502;2023-06-24T13:41:54;25.00;99.90
13982;DHT22;7065;50.880;5.502;2023-06-24T13:44:20;25.00;99.90
13982;DHT22;7065;50.880;5.502;2023-06-24T13:46:45;25.00;99.90
13982;DHT22;7065;50.880;5.502;2023-06-24T13:49:11;25.10;99.90
13982;DHT22;7065;50.880;5.502;2023-06-24T13:51:38;25.20;99.90
13982;DHT22;7065;50.880;5.502;2023-06-24T13:54:04;25.30;99.90
13982;DHT22;7065;50.880;5.502;2023-06-24T13:56:30;25.40;99.90
13982;DHT22;7065;50.880;5.502;2023-06-24T13:58:56;25.40;99.90
13982;DHT22;7065;50.880;5.502;2023-06-24T14:01:22;25.40;99.90
13982;DHT22;7065;50.880;5.502;2023-06-24T14:03:49;25.30;99.90
13982;DHT22;7065;50.880;5.502;2023-06-24T14:06:16;25.40;99.90
13982;DHT22;7065;50.880;5.502;2023-06-24T14:08:43;25.40;99.90
13982;DHT22;7065;50.880;5.502;2023-06-24T14:11:09;25.50;99.90
13982;DHT22;7065;50.880;5.502;2023-06-24T14:13:34;25.50;99.90
13982;DHT22;7065;50.880;5.502;2023-06-24T14:16:03;25.60;99.90
13982;DHT22;7065;50.880;5.502;2023-06-24T14:18:29;25.70;99.90
13982;DHT22;7065;50.880;5.502;2023-06-24T14:20:58;25.80;99.90
13982;DHT22;7065;50.880;5.502;2023-06-24T14:23:24;26.00;99.90
13982;DHT22;7065;50.880;5.502;2023-06-24T14:25:53;26.20;99.90
13982;DHT22;7065;50.880;5.502;2023-06-24T14:28:19;26.30;99.90
13982;DHT22;7065;50.880;5.502;2023-06-24T14:30:45;26.40;99.90
13982;DHT22;7065;50.880;5.502;2023-06-24T14:33:12;26.50;99.90
13982;DHT22;7065;50.880;5.502;2023-06-24T14:35:38;26.40;99.90
13982;DHT22;7065;50.880;5.502;2023-06-24T14:38:04;26.50;99.90
13982;DHT22;7065;50.880;5.502;2023-06-24T14:40:30;26.50;99.90
13982;DHT22;7065;50.880;5.502;2023-06-24T14:42:56;26.60;99.90
13982;DHT22;7065;50.880;5.502;2023-06-24T14:45:22;26.60;98.50
13982;DHT22;7065;50.880;5.502;2023-06-24T14:47:48;26.60;99.90
13982;DHT22;7065;50.880;5.502;2023-06-24T14:50:14;26.70;99.90
13982;DHT22;7065;50.880;5.502;2023-06-24T14:52:40;26.80;99.90
13982;DHT22;7065;50.880;5.502;2023-06-24T14:55:06;26.90;99.90
13982;DHT22;7065;50.880;5.502;2023-06-24T14:57:32;27.10;99.90
13982;DHT22;7065;50.880;5.502;2023-06-24T14:59:57;27.40;99.90
13982;DHT22;7065;50.880;5.502;2023-06-24T15:02:23;27.50;99.90
13982;DHT22;7065;50.880;5.502;2023-06-24T15:04:51;27.70;99.90
13982;DHT22;7065;50.880;5.502;2023-06-24T15:07:16;27.70;99.90
13982;DHT22;7065;50.880;5.502;2023-06-24T15:09:42;27.90;98.80
13982;DHT22;7065;50.880;5.502;2023-06-24T15:12:09;28.10;99.90
13982;DHT22;7065;50.880;5.502;2023-06-24T15:14:35;28.10;99.90
13982;DHT22;7065;50.880;5.502;2023-06-24T15:17:01;28.30;99.90
13982;DHT22;7065;50.880;5.502;2023-06-24T15:19:28;28.40;99.90
13982;DHT22;7065;50.880;5.502;2023-06-24T15:21:54;28.60;98.60
13982;DHT22;7065;50.880;5.502;2023-06-24T15:24:20;28.90;99.90
13982;DHT22;7065;50.880;5.502;2023-06-24T15:26:46;29.30;99.30
13982;DHT22;7065;50.880;5.502;2023-06-24T15:29:12;30.00;98.90
13982;DHT22;7065;50.880;5.502;2023-06-24T15:31:38;30.80;96.40
13982;DHT22;7065;50.880;5.502;2023-06-24T15:34:03;31.90;94.90
13982;DHT22;7065;50.880;5.502;2023-06-24T15:36:29;33.00;91.60
13982;DHT22;7065;50.880;5.502;2023-06-24T15:38:55;34.10;93.50
13982;DHT22;7065;50.880;5.502;2023-06-24T15:41:22;35.10;87.30
13982;DHT22;7065;50.880;5.502;2023-06-24T15:43:47;35.50;87.40
13982;DHT22;7065;50.880;5.502;2023-06-24T15:46:13;36.10;80.50
13982;DHT22;7065;50.880;5.502;2023-06-24T15:48:39;36.50;77.50
13982;DHT22;7065;50.880;5.502;2023-06-24T15:51:05;36.30;77.50
13982;DHT22;7065;50.880;5.502;2023-06-24T15:53:31;36.50;74.40
13982;DHT22;7065;50.880;5.502;2023-06-24T15:55:57;37.10;72.30
13982;DHT22;7065;50.880;5.502;2023-06-24T15:58:23;37.10;69.10
13982;DHT22;7065;50.880;5.502;2023-06-24T16:00:49;37.20;69.10
13982;DHT22;7065;50.880;5.502;2023-06-24T16:03:15;37.20;67.40
13982;DHT22;7065;50.880;5.502;2023-06-24T16:05:40;37.00;68.00
13982;DHT22;7065;50.880;5.502;2023-06-24T16:08:06;37.30;66.20